createdAt,value
2023-03-27T00:02:44.835Z,213.20
2023-03-27T00:06:44.867Z,208.66
2023-03-27T00:10:44.986Z,215.08
2023-03-27T00:14:45.097Z,215.12
2023-03-27T00:18:45.257Z,216.22
2023-03-27T00:22:45.334Z,219.57
2023-03-27T00:26:45.455Z,210.24
2023-03-27T00:30:45.608Z,205.50
2023-03-27T00:34:45.638Z,199.63
2023-03-27T00:38:45.872Z,187.35
2023-03-27T00:42:45.859Z,185.91
2023-03-27T00:46:46.019Z,185.52
2023-03-27T00:50:46.123Z,193.44
2023-03-27T00:54:46.236Z,211.65
2023-03-27T00:58:46.309Z,231.66
2023-03-27T01:02:46.543Z,222.98
2023-03-27T01:06:46.536Z,226.46
2023-03-27T01:10:46.658Z,229.64
2023-03-27T01:14:46.882Z,220.60
2023-03-27T01:18:46.928Z,225.19
2023-03-27T01:22:47.039Z,218.57
2023-03-27T01:26:47.140Z,210.44
2023-03-27T01:30:47.304Z,201.60
2023-03-27T01:34:47.441Z,201.87
2023-03-27T01:38:48.413Z,201.35
2023-03-27T01:42:47.342Z,200.72
2023-03-27T01:46:47.360Z,201.93
2023-03-27T01:50:47.451Z,208.28
2023-03-27T01:54:47.561Z,215.43
2023-03-27T01:58:47.711Z,203.80
2023-03-27T02:02:47.907Z,208.97
2023-03-27T02:06:48.030Z,211.58
2023-03-27T02:10:48.134Z,223.31
2023-03-27T02:14:48.264Z,216.90
2023-03-27T02:18:48.430Z,216.83
2023-03-27T02:22:48.577Z,229.36
2023-03-27T02:26:48.772Z,233.80
2023-03-27T02:31:06.779Z,224.55
2023-03-27T02:34:49.845Z,219.69
2023-03-27T02:38:48.897Z,218.59
2023-03-27T02:42:48.820Z,219.25
2023-03-27T02:46:49.000Z,212.18
2023-03-27T02:50:49.155Z,209.36
2023-03-27T02:54:49.336Z,206.29
2023-03-27T02:58:49.468Z,198.78
2023-03-27T03:02:49.714Z,196.44
2023-03-27T03:06:49.854Z,192.05
2023-03-27T03:10:49.993Z,181.00
2023-03-27T03:14:50.131Z,182.29
2023-03-27T03:18:50.408Z,172.44
2023-03-27T03:22:50.498Z,186.00
2023-03-27T03:26:50.645Z,179.08
2023-03-27T03:30:50.843Z,183.87
2023-03-27T03:34:51.012Z,168.14
2023-03-27T03:38:51.139Z,163.99
2023-03-27T03:42:51.326Z,156.94
2023-03-27T03:46:51.502Z,147.85
2023-03-27T03:50:51.647Z,139.73
2023-03-27T03:54:51.836Z,128.49
2023-03-27T03:58:52.023Z,91.69
2023-03-27T04:02:52.315Z,62.05
2023-03-27T04:06:52.385Z,50.51
2023-03-27T04:10:52.563Z,31.23
2023-03-27T04:14:52.734Z,29.34
2023-03-27T04:18:53.025Z,34.59
2023-03-27T04:22:54.286Z,32.42
2023-03-27T04:26:53.092Z,18.99
2023-03-27T04:30:53.055Z,24.94
2023-03-27T04:34:53.146Z,25.00
2023-03-27T04:38:53.343Z,28.69
2023-03-27T04:42:53.515Z,33.16
2023-03-27T04:46:53.806Z,28.33
2023-03-27T04:50:54.048Z,41.06
2023-03-27T04:54:54.106Z,68.85
2023-03-27T04:58:54.295Z,115.45
2023-03-27T05:02:54.498Z,166.49
2023-03-27T05:06:54.535Z,199.80
2023-03-27T05:10:54.727Z,237.80
2023-03-27T05:14:54.709Z,249.62
2023-03-27T05:18:54.783Z,249.21
2023-03-27T05:22:54.845Z,250.00
2023-03-27T05:26:54.947Z,248.00
2023-03-27T05:30:55.300Z,250.00
2023-03-27T05:34:55.049Z,250.65
2023-03-27T05:38:55.068Z,250.00
2023-03-27T05:42:55.431Z,248.06
2023-03-27T05:46:55.453Z,252.99
2023-03-27T05:50:55.335Z,250.07
2023-03-27T05:54:55.439Z,249.74
2023-03-27T05:58:55.430Z,252.70
2023-03-27T06:02:55.504Z,250.00
2023-03-27T06:06:55.305Z,250.00
2023-03-27T06:10:55.573Z,250.00
2023-03-27T06:14:55.239Z,249.91
2023-03-27T06:18:55.184Z,250.04
2023-03-27T06:22:55.114Z,250.00
2023-03-27T06:26:55.095Z,250.04
2023-03-27T06:30:55.081Z,249.81
2023-03-27T06:34:55.047Z,249.67
2023-03-27T06:38:54.970Z,249.95
2023-03-27T06:42:54.947Z,249.60
2023-03-27T06:46:54.968Z,247.33
2023-03-27T06:50:55.136Z,250.49
2023-03-27T06:54:54.827Z,245.94
2023-03-27T06:58:54.821Z,241.67
2023-03-27T07:02:55.044Z,241.55
2023-03-27T07:06:54.709Z,235.97
2023-03-27T07:14:54.650Z,234.33
2023-03-27T07:18:54.950Z,231.95
2023-03-27T07:22:56.451Z,232.73
2023-03-27T07:26:54.538Z,233.53
2023-03-27T07:30:55.355Z,230.60
2023-03-27T07:34:54.728Z,230.29
2023-03-27T07:38:55.031Z,229.34
2023-03-27T07:42:55.089Z,226.44
2023-03-27T07:46:55.483Z,226.73
2023-03-27T07:50:58.199Z,227.82
2023-03-27T07:54:56.469Z,228.11
2023-03-27T07:58:55.403Z,225.94
2023-03-27T08:02:55.451Z,227.40
2023-03-27T08:06:55.384Z,225.41
2023-03-27T08:10:55.276Z,224.17
2023-03-27T08:14:55.489Z,222.67
2023-03-27T08:18:55.217Z,220.89
2023-03-27T08:22:55.480Z,219.47
2023-03-27T08:26:55.984Z,218.50
2023-03-27T08:30:55.465Z,216.06
2023-03-27T08:34:56.181Z,215.08
2023-03-27T08:38:55.410Z,209.53
2023-03-27T08:42:55.502Z,213.55
2023-03-27T08:46:55.528Z,215.87
2023-03-27T08:50:55.528Z,219.60
2023-03-27T08:54:55.343Z,219.85
2023-03-27T08:58:55.512Z,220.21
2023-03-27T09:02:55.362Z,219.40
2023-03-27T09:06:55.213Z,217.95
2023-03-27T09:10:55.505Z,216.86
2023-03-27T09:14:55.181Z,216.34
2023-03-27T09:18:55.122Z,217.85
2023-03-27T09:22:55.516Z,218.55
2023-03-27T09:27:06.370Z,218.65
2023-03-27T09:30:56.042Z,219.16
2023-03-27T09:34:55.010Z,219.77
2023-03-27T09:38:54.994Z,217.98
2023-03-27T09:42:55.511Z,217.15
2023-03-27T09:46:54.846Z,216.79
2023-03-27T09:50:55.204Z,219.55
2023-03-27T09:54:55.021Z,218.48
2023-03-27T09:58:55.025Z,217.18
2023-03-27T10:02:55.042Z,218.82
2023-03-27T10:06:55.544Z,218.28
2023-03-27T10:10:55.255Z,219.66
2023-03-27T10:14:55.555Z,224.03
2023-03-27T10:18:55.118Z,228.76
2023-03-27T10:22:55.068Z,230.31
2023-03-27T10:26:55.097Z,229.96
2023-03-27T10:30:55.729Z,229.32
2023-03-27T10:34:55.065Z,228.24
2023-03-27T10:38:55.555Z,229.31
2023-03-27T10:42:55.538Z,234.60
2023-03-27T10:46:55.102Z,238.79
2023-03-27T10:50:55.167Z,237.16
2023-03-27T10:54:55.079Z,233.97
2023-03-27T10:58:55.557Z,235.38
2023-03-27T11:02:55.103Z,235.49
2023-03-27T11:06:55.040Z,234.70
2023-03-27T11:10:55.120Z,233.63
2023-03-27T11:14:55.044Z,235.03
2023-03-27T11:18:55.042Z,232.66
2023-03-27T11:22:55.045Z,229.59
2023-03-27T11:26:55.004Z,226.56
2023-03-27T11:30:55.675Z,225.45
2023-03-27T11:34:55.564Z,225.43
2023-03-27T11:38:55.547Z,225.71
2023-03-27T11:42:55.246Z,224.43
2023-03-27T11:46:55.569Z,220.13
2023-03-27T11:50:55.517Z,219.28
2023-03-27T11:54:55.297Z,219.59
2023-03-27T11:58:55.285Z,213.72
2023-03-27T12:02:55.365Z,215.51
2023-03-27T12:06:55.648Z,212.43
2023-03-27T12:10:55.474Z,208.72
2023-03-27T12:14:55.423Z,208.45
2023-03-27T12:19:03.945Z,208.82
2023-03-27T12:22:56.563Z,209.56
2023-03-27T12:26:55.397Z,210.19
2023-03-27T12:30:57.304Z,210.39
2023-03-27T12:34:55.313Z,211.42
2023-03-27T12:38:55.270Z,209.10
2023-03-27T12:42:55.200Z,209.03
2023-03-27T12:46:55.253Z,206.61
2023-03-27T12:50:55.563Z,205.24
2023-03-27T12:54:55.384Z,203.95
2023-03-27T12:58:55.508Z,201.01
2023-03-27T13:02:55.637Z,199.40
2023-03-27T13:06:55.688Z,197.82
2023-03-27T13:10:55.982Z,195.93
2023-03-27T13:14:55.918Z,195.00
2023-03-27T13:18:56.051Z,194.33
2023-03-27T13:22:56.205Z,193.43
2023-03-27T13:26:56.310Z,192.98
2023-03-27T13:30:56.498Z,190.51
2023-03-27T13:34:56.567Z,191.00
2023-03-27T13:38:56.724Z,188.09
2023-03-27T13:42:56.812Z,186.43
2023-03-27T13:46:57.004Z,185.01
2023-03-27T13:50:57.104Z,185.82
2023-03-27T13:54:57.296Z,184.79
2023-03-27T13:58:57.389Z,183.07
2023-03-27T14:02:57.656Z,181.41
2023-03-27T14:06:57.652Z,182.20
2023-03-27T14:10:57.771Z,180.64
2023-03-27T14:14:58.126Z,176.60
2023-03-27T14:18:58.101Z,176.74
2023-03-27T14:22:58.208Z,178.13
2023-03-27T14:26:58.366Z,178.67
2023-03-27T14:30:58.548Z,172.46
2023-03-27T14:34:58.647Z,175.36
2023-03-27T14:38:58.850Z,176.41
2023-03-27T14:42:59.019Z,177.30
2023-03-27T14:46:59.171Z,176.98
2023-03-27T14:50:59.632Z,174.99
2023-03-27T14:54:59.510Z,172.68
2023-03-27T14:58:59.746Z,171.61
2023-03-27T15:03:00.123Z,170.85
2023-03-27T15:07:00.108Z,170.94
2023-03-27T15:11:00.344Z,168.20
2023-03-27T15:15:00.475Z,167.42
2023-03-27T15:19:00.694Z,167.77
2023-03-27T15:23:00.902Z,169.27
2023-03-27T15:27:01.097Z,170.02
2023-03-27T15:31:01.390Z,169.84
2023-03-27T15:35:01.504Z,166.02
2023-03-27T15:39:01.757Z,165.81
2023-03-27T15:43:01.942Z,164.79
2023-03-27T15:47:02.005Z,163.87
2023-03-27T15:51:01.905Z,163.91
2023-03-27T15:55:01.859Z,161.50
2023-03-27T15:59:01.811Z,163.03
2023-03-27T16:03:02.322Z,162.65
2023-03-27T16:07:01.729Z,162.95
2023-03-27T16:11:01.653Z,162.01
2023-03-27T16:15:01.671Z,164.73
2023-03-27T16:19:01.581Z,162.76
2023-03-27T16:23:01.683Z,163.99
2023-03-27T16:27:01.607Z,161.74
2023-03-27T16:31:01.542Z,162.14
2023-03-27T16:35:01.505Z,165.14
2023-03-27T16:39:01.491Z,163.72
2023-03-27T16:43:01.473Z,164.34
2023-03-27T16:47:01.438Z,163.38
2023-03-27T16:51:01.373Z,163.38
2023-03-27T16:55:01.355Z,161.14
2023-03-27T16:59:01.310Z,163.32
2023-03-27T17:03:01.446Z,165.00
2023-03-27T17:07:01.328Z,165.25
2023-03-27T17:11:01.316Z,166.76
2023-03-27T17:15:01.251Z,166.23
2023-03-27T17:19:01.239Z,165.94
2023-03-27T17:23:01.173Z,166.07
2023-03-27T17:27:01.164Z,165.08
2023-03-27T17:31:04.701Z,165.89
2023-03-27T17:35:01.074Z,165.53
2023-03-27T17:39:01.026Z,165.35
2023-03-27T17:43:01.011Z,162.10
2023-03-27T17:47:01.074Z,161.83
2023-03-27T17:51:08.738Z,162.20
2023-03-27T17:55:01.864Z,162.22
2023-03-27T17:59:00.844Z,161.11
2023-03-27T18:03:00.847Z,160.07
2023-03-27T18:07:00.788Z,158.51
2023-03-27T18:11:00.800Z,158.44
2023-03-27T18:15:00.776Z,157.64
2023-03-27T18:19:00.784Z,157.13
2023-03-27T18:23:00.770Z,156.18
2023-03-27T18:27:00.723Z,155.89
2023-03-27T18:31:00.735Z,155.09
2023-03-27T18:35:00.782Z,154.56
2023-03-27T18:39:00.797Z,152.87
2023-03-27T18:43:00.883Z,151.39
2023-03-27T18:47:00.786Z,150.22
2023-03-27T18:51:00.795Z,150.33
2023-03-27T18:55:00.764Z,147.86
2023-03-27T18:59:00.762Z,147.23
2023-03-27T19:03:00.763Z,146.51
2023-03-27T19:07:00.762Z,145.27
2023-03-27T19:11:00.976Z,145.24
2023-03-27T19:15:09.740Z,144.05
2023-03-27T19:19:01.672Z,143.74
2023-03-27T19:23:00.666Z,142.36
2023-03-27T19:27:00.598Z,141.33
2023-03-27T19:31:00.651Z,141.10
2023-03-27T19:35:00.505Z,140.97
2023-03-27T19:39:00.452Z,140.00
2023-03-27T19:43:00.402Z,139.31
2023-03-27T19:47:00.424Z,138.09
2023-03-27T19:51:00.365Z,137.07
2023-03-27T19:55:00.366Z,136.95
2023-03-27T19:59:00.325Z,136.16
2023-03-27T20:03:00.404Z,135.59
2023-03-27T20:07:00.329Z,133.28
2023-03-27T20:11:00.733Z,133.12
2023-03-27T20:15:11.104Z,132.98
2023-03-27T20:19:01.346Z,132.54
2023-03-27T20:23:00.294Z,130.42
2023-03-27T20:27:00.213Z,130.34
2023-03-27T20:31:00.262Z,129.64
2023-03-27T20:35:03.351Z,129.75
2023-03-27T20:39:01.119Z,129.53
2023-03-27T20:43:00.065Z,127.49
2023-03-27T20:47:00.214Z,127.23
2023-03-27T20:51:00.034Z,125.76
2023-03-27T20:54:59.973Z,126.13
2023-03-27T20:58:59.987Z,124.53
2023-03-27T21:03:00.132Z,124.73
2023-03-27T21:06:59.995Z,124.83
2023-03-27T21:11:00.037Z,123.30
2023-03-27T21:15:00.115Z,123.32
2023-03-27T21:19:00.163Z,122.27
2023-03-27T21:23:00.179Z,120.73
2023-03-27T21:27:00.282Z,119.71
2023-03-27T21:31:00.324Z,119.64
2023-03-27T21:35:00.370Z,119.58
2023-03-27T21:39:00.381Z,118.93
2023-03-27T21:43:00.482Z,118.41
2023-03-27T21:47:00.562Z,118.53
2023-03-27T21:51:00.572Z,117.42
2023-03-27T21:55:03.377Z,116.45
2023-03-27T21:59:00.615Z,115.87
2023-03-27T22:03:00.828Z,115.21
2023-03-27T22:07:00.506Z,114.65
2023-03-27T22:11:00.509Z,113.86
2023-03-27T22:15:00.480Z,114.03
2023-03-27T22:19:00.423Z,112.60
2023-03-27T22:23:00.386Z,112.29
2023-03-27T22:27:00.330Z,110.45
2023-03-27T22:31:00.315Z,111.46
2023-03-27T22:35:00.250Z,110.71
2023-03-27T22:39:00.234Z,110.26
2023-03-27T22:43:00.221Z,110.55
2023-03-27T22:47:00.334Z,109.44
2023-03-27T22:51:00.103Z,109.12
2023-03-27T22:55:00.099Z,107.96
2023-03-27T22:59:00.019Z,108.08
2023-03-27T23:03:00.045Z,107.32
2023-03-27T23:06:59.961Z,106.28
2023-03-27T23:10:59.906Z,106.98
2023-03-27T23:14:59.974Z,105.04
2023-03-27T23:19:00.049Z,105.19
2023-03-27T23:23:00.125Z,105.02
2023-03-27T23:27:00.215Z,103.28
2023-03-27T23:31:00.306Z,102.78
2023-03-27T23:35:00.451Z,102.66
2023-03-27T23:39:00.541Z,102.75
2023-03-27T23:43:00.703Z,102.92
2023-03-27T23:47:00.797Z,101.80
2023-03-27T23:51:01.036Z,100.82
2023-03-27T23:55:01.101Z,100.21
2023-03-27T23:59:01.216Z,100.20
